createdAt,value
2023-04-30T00:01:06.190Z,102297.19
2023-04-30T00:03:33.347Z,102299.47
2023-04-30T00:06:00.717Z,102308.50
2023-04-30T00:08:28.709Z,102303.84
2023-04-30T00:10:56.056Z,102313.25
2023-04-30T00:13:23.778Z,102302.88
2023-04-30T00:15:51.253Z,102311.66
2023-04-30T00:18:18.492Z,102312.56
2023-04-30T00:20:45.584Z,102306.34
2023-04-30T00:23:12.678Z,102306.97
2023-04-30T00:25:39.793Z,102305.44
2023-04-30T00:28:06.877Z,102297.88
2023-04-30T00:30:33.927Z,102299.25
2023-04-30T00:33:01.184Z,102298.06
2023-04-30T00:35:28.269Z,102297.84
2023-04-30T00:37:55.536Z,102305.56
2023-04-30T00:40:22.682Z,102311.34
2023-04-30T00:42:52.617Z,102311.91
2023-04-30T00:45:22.486Z,102318.06
2023-04-30T00:47:50.253Z,102317.06
2023-04-30T00:50:17.468Z,102310.63
2023-04-30T00:52:45.200Z,102314.19
2023-04-30T00:55:12.937Z,102322.97
2023-04-30T00:57:40.996Z,102318.63
2023-04-30T01:00:11.644Z,102324.25
2023-04-30T01:02:38.973Z,102325.53
2023-04-30T01:05:07.547Z,102321.13
2023-04-30T01:07:35.945Z,102325.47
2023-04-30T01:10:03.273Z,102330.63
2023-04-30T01:12:54.442Z,102330.47
2023-04-30T01:15:36.347Z,102330.47
2023-04-30T01:18:13.278Z,102330.13
2023-04-30T01:20:50.552Z,102335.41
2023-04-30T01:23:52.675Z,102334.41
2023-04-30T01:26:31.557Z,102336.09
2023-04-30T01:29:02.925Z,102329.88
2023-04-30T01:31:30.119Z,102327.53
2023-04-30T01:33:57.240Z,102336.78
2023-04-30T01:36:57.726Z,102341.78
2023-04-30T01:39:40.057Z,102344.31
2023-04-30T01:42:47.142Z,102341.06
2023-04-30T01:45:32.934Z,102337.03
2023-04-30T01:48:08.634Z,102341.56
2023-04-30T01:50:44.024Z,102334.16
2023-04-30T01:53:20.993Z,102331.91
2023-04-30T01:55:57.424Z,102340.19
2023-04-30T01:58:25.907Z,102348.28
2023-04-30T02:00:53.762Z,102337.78
2023-04-30T02:03:20.940Z,102342.16
2023-04-30T02:05:48.818Z,102346.41
2023-04-30T02:08:15.991Z,102335.47
2023-04-30T02:10:43.114Z,102346.66
2023-04-30T02:13:10.250Z,102340.31
2023-04-30T02:15:37.302Z,102346.41
2023-04-30T02:18:04.412Z,102344.41
2023-04-30T02:20:31.498Z,102344.94
2023-04-30T02:22:58.910Z,102344.94
2023-04-30T02:25:26.314Z,102345.44
2023-04-30T02:27:53.876Z,102341.06
2023-04-30T02:30:21.117Z,102336.97
2023-04-30T02:32:48.338Z,102336.09
2023-04-30T02:35:15.524Z,102333.78
2023-04-30T02:37:42.724Z,102336.25
2023-04-30T02:40:10.666Z,102328.84
2023-04-30T02:42:37.903Z,102327.53
2023-04-30T02:45:05.502Z,102334.34
2023-04-30T02:47:32.583Z,102336.84
2023-04-30T02:49:59.678Z,102338.47
2023-04-30T02:52:27.661Z,102335.09
2023-04-30T02:54:54.953Z,102331.38
2023-04-30T02:57:22.240Z,102339.09
2023-04-30T02:59:49.353Z,102326.03
2023-04-30T03:02:16.730Z,102327.81
2023-04-30T03:04:43.868Z,102321.78
2023-04-30T03:07:11.464Z,102323.47
2023-04-30T03:09:38.544Z,102318.97
2023-04-30T03:12:05.948Z,102317.53
2023-04-30T03:14:32.989Z,102323.06
2023-04-30T03:17:00.037Z,102323.53
2023-04-30T03:19:27.105Z,102323.72
2023-04-30T03:21:55.264Z,102325.66
2023-04-30T03:24:22.440Z,102324.78
2023-04-30T03:26:49.643Z,102327.91
2023-04-30T03:29:16.955Z,102316.19
2023-04-30T03:31:44.177Z,102321.16
2023-04-30T03:34:11.467Z,102320.91
2023-04-30T03:36:38.588Z,102324.25
2023-04-30T03:39:06.417Z,102325.50
2023-04-30T03:41:33.609Z,102323.19
2023-04-30T03:44:00.699Z,102320.44
2023-04-30T03:46:27.962Z,102317.06
2023-04-30T03:48:55.333Z,102316.34
2023-04-30T03:51:22.497Z,102314.75
2023-04-30T03:53:49.623Z,102308.66
2023-04-30T03:56:16.776Z,102312.13
2023-04-30T03:58:43.939Z,102315.75
2023-04-30T04:01:11.095Z,102317.59
2023-04-30T04:03:38.425Z,102317.53
2023-04-30T04:06:06.009Z,102307.31
2023-04-30T04:08:33.177Z,102313.97
2023-04-30T04:11:02.803Z,102311.84
2023-04-30T04:13:29.823Z,102309.47
2023-04-30T04:15:56.940Z,102304.88
2023-04-30T04:18:24.279Z,102300.78
2023-04-30T04:20:51.497Z,102302.72
2023-04-30T04:23:18.622Z,102309.56
2023-04-30T04:25:49.605Z,102310.44
2023-04-30T04:28:17.210Z,102296.78
2023-04-30T04:30:44.654Z,102308.31
2023-04-30T04:33:11.729Z,102308.41
2023-04-30T04:35:38.881Z,102307.69
2023-04-30T04:38:06.243Z,102312.31
2023-04-30T04:40:33.467Z,102313.63
2023-04-30T04:43:00.650Z,102309.47
2023-04-30T04:45:27.778Z,102321.16
2023-04-30T04:47:55.149Z,102315.22
2023-04-30T04:50:22.768Z,102322.28
2023-04-30T04:52:49.856Z,102308.22
2023-04-30T04:55:17.645Z,102315.13
2023-04-30T04:57:44.856Z,102321.16
2023-04-30T05:00:13.070Z,102312.63
2023-04-30T05:02:40.315Z,102311.19
2023-04-30T05:05:07.910Z,102310.47
2023-04-30T05:07:35.208Z,102301.97
2023-04-30T05:10:02.327Z,102289.88
2023-04-30T05:12:29.394Z,102309.22
2023-04-30T05:14:56.509Z,102310.28
2023-04-30T05:17:24.141Z,102314.16
2023-04-30T05:19:53.113Z,102328.28
2023-04-30T05:22:21.624Z,102325.16
2023-04-30T05:24:48.738Z,102326.13
2023-04-30T05:27:16.691Z,102329.47
2023-04-30T05:29:43.755Z,102334.88
2023-04-30T05:32:10.905Z,102330.75
2023-04-30T05:34:37.972Z,102333.66
2023-04-30T05:37:05.062Z,102326.38
2023-04-30T05:39:32.172Z,102334.16
2023-04-30T05:41:59.472Z,102342.28
2023-04-30T05:44:26.707Z,102345.28
2023-04-30T05:46:54.085Z,102338.59
2023-04-30T05:49:21.213Z,102343.22
2023-04-30T05:51:48.370Z,102344.31
2023-04-30T05:54:16.394Z,102359.31
2023-04-30T05:56:43.477Z,102357.97
2023-04-30T05:59:10.595Z,102356.81
2023-04-30T06:01:37.748Z,102356.31
2023-04-30T06:04:05.172Z,102348.34
2023-04-30T06:06:32.578Z,102355.75
2023-04-30T06:08:59.766Z,102354.69
2023-04-30T06:11:27.232Z,102362.06
2023-04-30T06:13:54.354Z,102350.56
2023-04-30T06:16:21.637Z,102363.66
2023-04-30T06:18:51.633Z,102361.28
2023-04-30T06:21:20.738Z,102368.88
2023-04-30T06:23:47.805Z,102359.44
2023-04-30T06:26:15.390Z,102374.63
2023-04-30T06:28:42.431Z,102380.53
2023-04-30T06:31:10.941Z,102377.06
2023-04-30T06:33:38.038Z,102377.84
2023-04-30T06:36:05.972Z,102365.13
2023-04-30T06:38:33.114Z,102379.78
2023-04-30T06:41:02.334Z,102375.06
2023-04-30T06:43:29.472Z,102374.03
2023-04-30T06:45:56.634Z,102364.28
2023-04-30T06:48:25.750Z,102365.03
2023-04-30T06:50:54.065Z,102365.78
2023-04-30T06:53:21.589Z,102356.75
2023-04-30T06:55:49.136Z,102363.53
2023-04-30T06:58:16.373Z,102362.06
2023-04-30T07:00:43.384Z,102362.56
2023-04-30T07:03:10.842Z,102367.41
2023-04-30T07:05:38.119Z,102373.06
2023-04-30T07:08:07.082Z,102377.09
2023-04-30T07:10:34.398Z,102369.63
2023-04-30T07:13:01.852Z,102375.84
2023-04-30T07:15:28.935Z,102368.66
2023-04-30T07:17:56.151Z,102371.94
2023-04-30T07:20:24.159Z,102380.97
2023-04-30T07:22:51.268Z,102383.31
2023-04-30T07:25:18.524Z,102377.63
2023-04-30T07:27:46.232Z,102382.72
2023-04-30T07:30:13.955Z,102380.72
2023-04-30T07:32:41.610Z,102385.19
2023-04-30T07:35:09.343Z,102381.25
2023-04-30T07:37:37.172Z,102384.47
2023-04-30T07:40:05.909Z,102379.69
2023-04-30T07:42:33.147Z,102383.47
2023-04-30T07:45:00.788Z,102377.34
2023-04-30T07:47:28.427Z,102374.00
2023-04-30T07:49:56.145Z,102372.25
2023-04-30T07:52:26.008Z,102372.44
2023-04-30T07:54:53.117Z,102373.31
2023-04-30T07:57:20.317Z,102373.47
2023-04-30T07:59:50.212Z,102362.84
2023-04-30T08:02:18.575Z,102369.19
2023-04-30T08:04:46.374Z,102368.41
2023-04-30T08:07:15.603Z,102365.00
2023-04-30T08:09:42.709Z,102364.53
2023-04-30T08:12:10.275Z,102371.72
2023-04-30T08:14:37.369Z,102378.19
2023-04-30T08:17:04.796Z,102372.81
2023-04-30T08:19:32.125Z,102369.44
2023-04-30T08:22:00.514Z,102368.75
2023-04-30T08:24:27.635Z,102374.84
2023-04-30T08:26:55.155Z,102371.34
2023-04-30T08:29:23.008Z,102374.53
2023-04-30T08:31:50.152Z,102367.94
2023-04-30T08:34:17.449Z,102377.44
2023-04-30T08:36:45.051Z,102373.50
2023-04-30T08:39:13.320Z,102369.69
2023-04-30T08:41:46.496Z,102373.88
2023-04-30T08:44:13.618Z,102375.09
2023-04-30T08:46:42.153Z,102367.50
2023-04-30T08:49:10.176Z,102370.31
2023-04-30T08:51:37.595Z,102371.25
2023-04-30T08:54:04.701Z,102362.88
2023-04-30T08:56:33.579Z,102365.59
2023-04-30T08:59:00.814Z,102370.97
2023-04-30T09:01:29.694Z,102368.50
2023-04-30T09:03:58.232Z,102364.50
2023-04-30T09:06:27.402Z,102364.69
2023-04-30T09:08:57.377Z,102352.75
2023-04-30T09:11:32.822Z,102357.78
2023-04-30T09:14:01.775Z,102355.31
2023-04-30T09:16:44.464Z,102357.28
2023-04-30T09:19:25.955Z,102361.13
2023-04-30T09:21:54.105Z,102354.44
2023-04-30T09:24:21.241Z,102362.53
2023-04-30T09:26:48.801Z,102355.63
2023-04-30T09:29:16.861Z,102354.00
2023-04-30T09:31:47.225Z,102347.81
2023-04-30T09:34:15.199Z,102350.69
2023-04-30T09:36:55.440Z,102348.25
2023-04-30T09:39:23.187Z,102346.84
2023-04-30T09:41:53.152Z,102351.28
2023-04-30T09:44:31.540Z,102345.91
2023-04-30T09:46:59.279Z,102343.88
2023-04-30T09:49:27.627Z,102344.47
2023-04-30T09:52:00.833Z,102344.94
2023-04-30T09:54:32.236Z,102345.25
2023-04-30T09:57:02.223Z,102334.00
2023-04-30T09:59:39.513Z,102336.84
2023-04-30T10:02:08.261Z,102337.06
2023-04-30T10:04:38.172Z,102325.78
2023-04-30T10:07:27.171Z,102329.47
2023-04-30T10:09:58.991Z,102319.00
2023-04-30T10:12:32.031Z,102315.56
2023-04-30T10:15:11.432Z,102311.25
2023-04-30T10:17:44.314Z,102318.47
2023-04-30T10:20:12.892Z,102318.56
2023-04-30T10:22:41.767Z,102305.03
2023-04-30T10:25:13.398Z,102315.75
2023-04-30T10:27:40.671Z,102308.97
2023-04-30T10:30:10.704Z,102308.09
2023-04-30T10:32:46.994Z,102299.09
2023-04-30T10:35:26.222Z,102309.72
2023-04-30T10:37:59.665Z,102298.59
2023-04-30T10:40:27.648Z,102302.13
2023-04-30T10:42:55.775Z,102292.63
2023-04-30T10:45:39.390Z,102300.56
2023-04-30T10:48:07.347Z,102301.66
2023-04-30T10:50:46.065Z,102296.25
2023-04-30T10:53:17.644Z,102294.66
2023-04-30T10:55:52.184Z,102294.00
2023-04-30T10:58:34.673Z,102285.28
2023-04-30T11:01:10.995Z,102279.16
2023-04-30T11:03:42.461Z,102278.31
2023-04-30T11:06:15.084Z,102276.25
2023-04-30T11:08:46.650Z,102272.72
2023-04-30T11:11:24.144Z,102265.09
2023-04-30T11:14:01.939Z,102263.47
2023-04-30T11:16:35.176Z,102264.47
2023-04-30T11:19:14.222Z,102260.19
2023-04-30T11:21:42.637Z,102272.47
2023-04-30T11:24:09.787Z,102263.72
2023-04-30T11:27:03.359Z,102253.56
2023-04-30T11:29:31.887Z,102254.59
2023-04-30T11:32:04.097Z,102245.88
2023-04-30T11:34:31.371Z,102232.09
2023-04-30T11:37:00.950Z,102231.31
2023-04-30T11:39:29.275Z,102221.81
2023-04-30T11:41:56.446Z,102227.28
2023-04-30T11:44:26.444Z,102224.84
2023-04-30T11:46:54.092Z,102224.19
2023-04-30T11:49:21.231Z,102224.38
2023-04-30T11:51:50.450Z,102218.28
2023-04-30T11:54:18.549Z,102216.66
2023-04-30T11:56:49.947Z,102221.25
2023-04-30T11:59:17.771Z,102207.28
2023-04-30T12:01:45.256Z,102209.00
2023-04-30T12:04:13.681Z,102210.81
2023-04-30T12:06:41.991Z,102209.81
2023-04-30T12:09:10.584Z,102202.69
2023-04-30T12:11:38.761Z,102194.06
2023-04-30T12:14:07.869Z,102198.53
2023-04-30T12:16:42.424Z,102203.94
2023-04-30T12:19:09.765Z,102202.19
2023-04-30T12:21:37.635Z,102194.41
2023-04-30T12:24:04.952Z,102190.16
2023-04-30T12:26:40.295Z,102190.19
2023-04-30T12:29:16.466Z,102189.38
2023-04-30T12:31:44.679Z,102180.59
2023-04-30T12:34:13.869Z,102178.03
2023-04-30T12:36:45.017Z,102183.31
2023-04-30T12:39:15.977Z,102178.09
2023-04-30T12:41:48.811Z,102170.19
2023-04-30T12:44:27.514Z,102169.34
2023-04-30T12:46:57.621Z,102169.34
2023-04-30T12:49:27.273Z,102164.06
2023-04-30T12:52:07.430Z,102157.94
2023-04-30T12:54:36.256Z,102160.50
2023-04-30T12:57:12.221Z,102150.78
2023-04-30T12:59:40.575Z,102146.34
2023-04-30T13:02:12.938Z,102151.66
2023-04-30T13:04:41.621Z,102150.88
2023-04-30T13:07:08.986Z,102141.13
2023-04-30T13:09:37.241Z,102142.03
2023-04-30T13:12:04.863Z,102138.66
2023-04-30T13:14:32.756Z,102141.28
2023-04-30T13:17:00.651Z,102135.16
2023-04-30T13:19:27.707Z,102132.53
2023-04-30T13:21:58.615Z,102128.13
2023-04-30T13:24:25.890Z,102125.22
2023-04-30T13:26:53.408Z,102128.16
2023-04-30T13:29:23.125Z,102112.00
2023-04-30T13:31:50.354Z,102118.56
2023-04-30T13:34:17.618Z,102121.75
2023-04-30T13:36:46.751Z,102116.59
2023-04-30T13:39:13.986Z,102114.88
2023-04-30T13:41:41.195Z,102110.41
2023-04-30T13:44:08.533Z,102106.66
2023-04-30T13:46:36.011Z,102109.41
2023-04-30T13:49:03.652Z,102095.38
2023-04-30T13:51:31.013Z,102098.34
2023-04-30T13:53:58.115Z,102095.34
2023-04-30T13:56:25.857Z,102103.53
2023-04-30T13:58:53.233Z,102100.16
2023-04-30T14:01:20.382Z,102104.50
2023-04-30T14:03:48.251Z,102094.81
2023-04-30T14:06:16.029Z,102091.31
2023-04-30T14:08:43.116Z,102085.94
2023-04-30T14:11:10.291Z,102088.56
2023-04-30T14:13:37.415Z,102079.13
2023-04-30T14:16:04.757Z,102075.41
2023-04-30T14:18:32.573Z,102072.16
2023-04-30T14:20:59.627Z,102067.00
2023-04-30T14:23:28.782Z,102065.28
2023-04-30T14:25:56.466Z,102063.69
2023-04-30T14:28:24.235Z,102069.69
2023-04-30T14:30:51.348Z,102067.47
2023-04-30T14:33:18.569Z,102068.53
2023-04-30T14:35:48.315Z,102067.72
2023-04-30T14:38:16.297Z,102071.25
2023-04-30T14:40:43.950Z,102072.13
2023-04-30T14:43:11.042Z,102057.25
2023-04-30T14:45:39.916Z,102064.25
2023-04-30T14:48:07.439Z,102058.97
2023-04-30T14:50:34.596Z,102055.25
2023-04-30T14:53:01.941Z,102056.59
2023-04-30T14:55:29.105Z,102052.75
2023-04-30T14:57:56.310Z,102049.56
2023-04-30T15:00:24.360Z,102049.66
2023-04-30T15:02:51.580Z,102043.56
2023-04-30T15:05:19.087Z,102035.63
2023-04-30T15:07:46.612Z,102040.13
2023-04-30T15:10:13.733Z,102017.47
2023-04-30T15:12:40.949Z,102031.34
2023-04-30T15:15:08.525Z,102025.81
2023-04-30T15:17:37.323Z,102014.34
2023-04-30T15:20:08.748Z,102017.81
2023-04-30T15:22:35.849Z,102024.00
2023-04-30T15:25:03.889Z,102018.09
2023-04-30T15:27:33.190Z,102017.53
2023-04-30T15:30:01.759Z,102016.81
2023-04-30T15:32:28.873Z,102016.06
2023-04-30T15:34:55.906Z,102010.00
2023-04-30T15:37:23.381Z,102023.13
2023-04-30T15:39:50.498Z,102017.88
2023-04-30T15:42:17.573Z,102012.63
2023-04-30T15:44:47.195Z,102016.97
2023-04-30T15:47:14.251Z,102010.84
2023-04-30T15:49:41.361Z,102019.63
2023-04-30T15:52:08.517Z,102010.88
2023-04-30T15:54:35.808Z,102002.09
2023-04-30T15:57:04.363Z,102007.22
2023-04-30T15:59:31.599Z,102000.06
2023-04-30T16:01:58.811Z,101993.66
2023-04-30T16:04:26.026Z,101990.13
2023-04-30T16:06:54.219Z,101986.47
2023-04-30T16:09:21.483Z,101992.38
2023-04-30T16:11:49.220Z,101980.78
2023-04-30T16:14:16.575Z,101980.69
2023-04-30T16:16:43.804Z,101971.25
2023-04-30T16:19:12.476Z,101976.38
2023-04-30T16:21:40.595Z,101967.97
2023-04-30T16:24:09.682Z,101972.56
2023-04-30T16:26:37.166Z,101969.88
2023-04-30T16:29:04.579Z,101953.16
2023-04-30T16:31:32.309Z,101961.09
2023-04-30T16:33:59.497Z,101966.56
2023-04-30T16:36:27.987Z,101954.38
2023-04-30T16:38:57.904Z,101953.63
2023-04-30T16:41:25.961Z,101944.53
2023-04-30T16:43:53.355Z,101957.59
2023-04-30T16:46:20.546Z,101952.47
2023-04-30T16:48:48.371Z,101951.06
2023-04-30T16:51:15.433Z,101951.19
2023-04-30T16:53:42.903Z,101951.94
2023-04-30T16:56:09.964Z,101945.56
2023-04-30T16:58:37.941Z,101945.91
2023-04-30T17:01:05.264Z,101942.50
2023-04-30T17:03:34.662Z,101944.28
2023-04-30T17:06:02.315Z,101946.03
2023-04-30T17:08:29.471Z,101944.31
2023-04-30T17:10:56.794Z,101940.88
2023-04-30T17:13:24.371Z,101943.50
2023-04-30T17:15:51.506Z,101942.63
2023-04-30T17:18:19.179Z,101938.22
2023-04-30T17:20:47.917Z,101941.69
2023-04-30T17:23:15.408Z,101932.06
2023-04-30T17:25:42.968Z,101939.88
2023-04-30T17:28:10.082Z,101925.91
2023-04-30T17:30:37.264Z,101922.41
2023-04-30T17:33:05.992Z,101925.00
2023-04-30T17:35:34.035Z,101918.88
2023-04-30T17:38:04.345Z,101922.34
2023-04-30T17:40:32.612Z,101921.47
2023-04-30T17:42:59.767Z,101924.94
2023-04-30T17:45:26.999Z,101917.03
2023-04-30T17:47:54.414Z,101913.44
2023-04-30T17:50:21.944Z,101916.88
2023-04-30T17:52:50.228Z,101920.31
2023-04-30T17:55:17.356Z,101926.38
2023-04-30T17:57:44.438Z,101915.81
2023-04-30T18:00:12.462Z,101922.75
2023-04-30T18:02:39.795Z,101927.94
2023-04-30T18:05:07.379Z,101917.44
2023-04-30T18:07:34.522Z,101912.97
2023-04-30T18:10:01.875Z,101910.28
2023-04-30T18:12:29.166Z,101918.09
2023-04-30T18:14:56.288Z,101918.81
2023-04-30T18:17:23.397Z,101911.81
2023-04-30T18:19:50.694Z,101909.94
2023-04-30T18:22:19.055Z,101916.06
2023-04-30T18:24:46.334Z,101916.81
2023-04-30T18:27:13.973Z,101918.53
2023-04-30T18:29:41.929Z,101924.53
2023-04-30T18:32:09.241Z,101919.25
2023-04-30T18:34:37.907Z,101920.91
2023-04-30T18:37:05.026Z,101913.84
2023-04-30T18:39:32.204Z,101908.53
2023-04-30T18:41:59.439Z,101912.84
2023-04-30T18:44:32.524Z,101913.66
2023-04-30T18:46:59.668Z,101904.81
2023-04-30T18:49:26.845Z,101906.50
2023-04-30T18:51:55.455Z,101894.22
2023-04-30T18:54:25.574Z,101893.22
2023-04-30T18:56:53.410Z,101893.09
2023-04-30T18:59:22.213Z,101893.00
2023-04-30T19:01:52.317Z,101886.00
2023-04-30T19:04:19.465Z,101894.63
2023-04-30T19:06:49.561Z,101891.88
2023-04-30T19:09:17.304Z,101894.31
2023-04-30T19:11:44.519Z,101901.97
2023-04-30T19:14:11.735Z,101893.09
2023-04-30T19:16:38.997Z,101897.44
2023-04-30T19:19:06.441Z,101900.75
2023-04-30T19:21:36.199Z,101905.88
2023-04-30T19:24:03.559Z,101911.91
2023-04-30T19:26:32.058Z,101899.63
2023-04-30T19:29:00.138Z,101907.41
2023-04-30T19:31:27.610Z,101913.47
2023-04-30T19:33:55.882Z,101909.84
2023-04-30T19:36:23.455Z,101912.34
2023-04-30T19:38:54.653Z,101906.03
2023-04-30T19:41:22.265Z,101909.47
2023-04-30T19:43:49.508Z,101911.97
2023-04-30T19:46:16.789Z,101916.22
2023-04-30T19:48:46.105Z,101917.06
2023-04-30T19:51:13.251Z,101911.75
2023-04-30T19:53:40.414Z,101907.19
2023-04-30T19:56:08.785Z,101911.47
2023-04-30T19:58:36.240Z,101900.09
2023-04-30T20:01:05.307Z,101904.34
2023-04-30T20:03:34.168Z,101903.41
2023-04-30T20:06:02.836Z,101900.75
2023-04-30T20:08:30.016Z,101893.75
2023-04-30T20:10:57.323Z,101896.38
2023-04-30T20:13:25.153Z,101891.13
2023-04-30T20:15:53.061Z,101898.88
2023-04-30T20:18:20.456Z,101894.50
2023-04-30T20:20:48.655Z,101893.66
2023-04-30T20:23:17.634Z,101895.31
2023-04-30T20:25:46.606Z,101894.34
2023-04-30T20:28:15.392Z,101888.16
2023-04-30T20:30:43.207Z,101894.19
2023-04-30T20:33:12.166Z,101892.41
2023-04-30T20:35:46.424Z,101901.00
2023-04-30T20:38:14.512Z,101883.56
2023-04-30T20:40:41.708Z,101896.53
2023-04-30T20:43:10.965Z,101892.06
2023-04-30T20:45:38.356Z,101884.13
2023-04-30T20:48:06.751Z,101884.13
2023-04-30T20:50:34.206Z,101875.41
2023-04-30T20:53:01.657Z,101870.91
2023-04-30T20:55:28.718Z,101874.34
2023-04-30T20:57:55.779Z,101880.34
2023-04-30T21:00:23.656Z,101879.38
2023-04-30T21:02:53.273Z,101874.97
2023-04-30T21:05:20.946Z,101873.09
2023-04-30T21:07:48.075Z,101879.03
2023-04-30T21:10:15.569Z,101874.75
2023-04-30T21:12:42.977Z,101869.44
2023-04-30T21:15:10.602Z,101866.69
2023-04-30T21:17:37.795Z,101862.31
2023-04-30T21:20:05.416Z,101857.88
2023-04-30T21:22:33.072Z,101854.28
2023-04-30T21:25:00.596Z,101868.88
2023-04-30T21:27:27.964Z,101851.31
2023-04-30T21:29:55.476Z,101856.44
2023-04-30T21:32:24.076Z,101858.16
2023-04-30T21:34:51.215Z,101854.53
2023-04-30T21:37:18.280Z,101855.41
2023-04-30T21:39:45.592Z,101860.59
2023-04-30T21:42:12.660Z,101857.94
2023-04-30T21:44:40.019Z,101849.16
2023-04-30T21:47:10.459Z,101846.44
2023-04-30T21:49:37.611Z,101848.88
2023-04-30T21:52:08.074Z,101849.59
2023-04-30T21:54:35.297Z,101847.81
2023-04-30T21:57:02.676Z,101847.78
2023-04-30T21:59:29.729Z,101848.47
2023-04-30T22:01:57.056Z,101848.47
2023-04-30T22:04:25.322Z,101849.38
2023-04-30T22:06:52.730Z,101841.50
2023-04-30T22:09:20.051Z,101841.38
2023-04-30T22:11:47.124Z,101837.97
2023-04-30T22:14:14.283Z,101836.13
2023-04-30T22:16:41.506Z,101828.25
2023-04-30T22:19:08.698Z,101829.13
2023-04-30T22:21:35.845Z,101823.81
2023-04-30T22:24:03.014Z,101822.97
2023-04-30T22:26:30.159Z,101820.34
2023-04-30T22:28:57.933Z,101807.22
2023-04-30T22:31:25.181Z,101808.06
2023-04-30T22:33:52.331Z,101809.00
2023-04-30T22:36:19.353Z,101819.28
2023-04-30T22:38:46.486Z,101811.47
2023-04-30T22:41:13.630Z,101813.91
2023-04-30T22:43:40.986Z,101807.78
2023-04-30T22:46:08.079Z,101810.25
2023-04-30T22:48:35.493Z,101810.13
2023-04-30T22:51:03.314Z,101806.56
2023-04-30T22:53:30.504Z,101806.53
2023-04-30T22:55:57.672Z,101806.44
2023-04-30T22:58:27.575Z,101800.28
2023-04-30T23:00:55.158Z,101808.06
2023-04-30T23:03:22.456Z,101804.47
2023-04-30T23:05:51.540Z,101807.72
2023-04-30T23:08:19.153Z,101802.41
2023-04-30T23:10:46.784Z,101807.53
2023-04-30T23:13:14.720Z,101797.84
2023-04-30T23:15:43.485Z,101796.94
2023-04-30T23:18:11.348Z,101800.31
2023-04-30T23:20:39.906Z,101796.75
2023-04-30T23:23:06.961Z,101801.00
2023-04-30T23:25:34.050Z,101800.00
2023-04-30T23:28:01.565Z,101796.47
2023-04-30T23:30:28.841Z,101801.53
2023-04-30T23:32:56.357Z,101794.50
2023-04-30T23:35:23.985Z,101793.53
2023-04-30T23:37:51.499Z,101799.44
2023-04-30T23:40:19.766Z,101792.25
2023-04-30T23:42:46.985Z,101796.63
2023-04-30T23:45:14.093Z,101799.09
2023-04-30T23:47:41.250Z,101794.59
2023-04-30T23:50:08.946Z,101791.84
2023-04-30T23:52:36.804Z,101787.47
2023-04-30T23:55:04.103Z,101784.81
2023-04-30T23:57:31.254Z,101782.09
2023-04-30T23:59:58.607Z,101782.91
